Startpagina
METAR-TAF:

METAR-TAF

Vliegvelden :

Flughafen Frankfurt-Hahn

Hahn, Duitsland

breedte: 49-57N, lengte: 007-16E, hoogte: 491 m

Actueel weer

Dit bericht is 21 minuten geleden gemaakt, om 09:20 UTC
Wind 8 kt uit het westen
Temperatuur 18°C
Vochtigheid 68%
Druk 1026 hPa
Zicht 10 km of meer
geen wolken onder 1500 m en geen cumulonimbus

METAR: EDFH 150920Z 26008KT CAVOK 18/12 Q1026

Tijdstip: 11:41 (09:41 UTC)

Verwachting

Dit bericht is 4 uur en het 41 minuten geleden gemaakt, om 05:00 UTC
Verwachting geldig van 15 om 06 UTC tot 16 om 06 UTC
Wind 3 kt uit variabele richting
Zicht 10 km of meer
geen wolken onder 1500 m en geen cumulonimbus
Wijzigt naar
van 15 om 06 UTC tot 15 om 09 UTC
Wind 5 kt uit het zuidwesten
Wijzigt naar
van 15 om 09 UTC tot 15 om 11 UTC
Wind 7 kt uit het westen

TAF: EDFH 150500Z 1506/1606 VRB03KT CAVOK BECMG 1506/1509 22005KT BECMG 1509/1511 28007KT

Waarnemingen en weersverwachtingen van meer dan 4000 vliegvelden (METAR en TAF).

De beschikbare stations zijn de gele en rode punten op de kaart.

Ga met uw muis naar het station om de naam te zien.

Klik dan om waarnemingen en weersverwachtingen te zien.

kaart wijzigen: klik op de groene knoppen met een zwart kruis om in te zoomen, op de groene knop met een streepje om uit te zoomen of op de groene pijlen voor aangrenzende kaarten.


METAR-TAF: